Terminal Aerodrome Forecast
Issued by NWS Duluth, MN

Home | Current Version | Previous Version | Text Only | Print | Product List | Glossary On
Versions: 1 2 3 4 5 6 7 8 9 10 11 12 13 14 15 16 17 18 19 20 21 22 23 24 25 26 27 28 29 30 31 32 33
000
FTUS43 KDLH 300541
TAFDLH
TAF
KDLH 300541Z 3006/3106 26007KT P6SM SKC
      TEMPO 3009/3012 2SM BR
     FM301500 27010G18KT P6SM SCT070
     FM301800 24010G18KT P6SM VCSH BKN070
     FM310100 10007KT 6SM BR VCSH OVC070=

USA.gov is the U.S. government's official web portal to all federal, state and local government web resources and services.